Thornhurst, Pennsylvania
Current Conditions -  °F | °C
As of 9:54 PM on Friday 28 Nov 2014 (Local Time) from KAVP Reporting Station
Clear Clear  
Wind Chill:   Ceiling: Unl
Heat Index: 15°   Visibility: 10mi
Dew Point:   Wind: 6mph
Humidity: 77%   Direction: 180°S
Pressure: 30.22"   Gusts: NA
Location:  41.243°N, 75.5491°W
Report Text: KAVP 290254Z 18005KT 10SM CLR M09/M13 A3022 RMK AO2 SLP245 T10941128 50004
Loading
Personal Weather Stations






























Interactive Weather Map New forecast layout! Learn more

10-Day Weather Forecast

Advertisements
Track Severe Weather on mobile